sensor_id;sensor_type;location;lat;lon;timestamp;P1;durP1;ratioP1;P2;durP2;ratioP2
12088;SDS011;6107;49.078;8.578;2023-06-14T00:00:39;5.30;;;3.90;;
12088;SDS011;6107;49.078;8.578;2023-06-14T00:03:06;5.63;;;4.07;;
12088;SDS011;6107;49.078;8.578;2023-06-14T00:05:35;6.13;;;4.32;;
12088;SDS011;6107;49.078;8.578;2023-06-14T00:08:06;5.97;;;4.17;;
12088;SDS011;6107;49.078;8.578;2023-06-14T00:10:33;4.85;;;4.03;;
12088;SDS011;6107;49.078;8.578;2023-06-14T00:13:00;6.05;;;4.30;;
12088;SDS011;6107;49.078;8.578;2023-06-14T00:15:30;5.97;;;4.27;;
12088;SDS011;6107;49.078;8.578;2023-06-14T00:17:56;7.50;;;4.07;;
12088;SDS011;6107;49.078;8.578;2023-06-14T00:20:25;6.43;;;4.13;;
12088;SDS011;6107;49.078;8.578;2023-06-14T00:22:51;6.57;;;4.10;;
12088;SDS011;6107;49.078;8.578;2023-06-14T00:25:17;5.97;;;4.10;;
12088;SDS011;6107;49.078;8.578;2023-06-14T00:27:42;4.57;;;3.90;;
12088;SDS011;6107;49.078;8.578;2023-06-14T00:30:08;6.97;;;3.63;;
12088;SDS011;6107;49.078;8.578;2023-06-14T00:32:34;5.23;;;3.77;;
12088;SDS011;6107;49.078;8.578;2023-06-14T00:34:59;5.47;;;4.27;;
12088;SDS011;6107;49.078;8.578;2023-06-14T00:37:25;6.83;;;4.30;;
12088;SDS011;6107;49.078;8.578;2023-06-14T00:39:50;6.67;;;4.20;;
12088;SDS011;6107;49.078;8.578;2023-06-14T00:42:25;4.40;;;3.93;;
12088;SDS011;6107;49.078;8.578;2023-06-14T00:44:52;6.13;;;4.23;;
12088;SDS011;6107;49.078;8.578;2023-06-14T00:47:18;4.93;;;4.20;;
12088;SDS011;6107;49.078;8.578;2023-06-14T00:49:45;6.67;;;4.40;;
12088;SDS011;6107;49.078;8.578;2023-06-14T00:52:12;5.30;;;4.40;;
12088;SDS011;6107;49.078;8.578;2023-06-14T00:54:39;9.60;;;4.70;;
12088;SDS011;6107;49.078;8.578;2023-06-14T00:57:06;6.10;;;4.47;;
12088;SDS011;6107;49.078;8.578;2023-06-14T00:59:32;6.33;;;4.37;;
12088;SDS011;6107;49.078;8.578;2023-06-14T01:01:58;7.67;;;4.23;;
12088;SDS011;6107;49.078;8.578;2023-06-14T01:04:23;4.83;;;4.10;;
12088;SDS011;6107;49.078;8.578;2023-06-14T01:06:53;6.87;;;4.47;;
12088;SDS011;6107;49.078;8.578;2023-06-14T01:09:33;5.43;;;4.20;;
12088;SDS011;6107;49.078;8.578;2023-06-14T01:12:48;4.83;;;4.00;;
12088;SDS011;6107;49.078;8.578;2023-06-14T01:15:20;5.57;;;4.43;;
12088;SDS011;6107;49.078;8.578;2023-06-14T01:17:48;6.17;;;4.47;;
12088;SDS011;6107;49.078;8.578;2023-06-14T01:20:16;5.17;;;4.40;;
12088;SDS011;6107;49.078;8.578;2023-06-14T01:22:53;5.13;;;4.13;;
12088;SDS011;6107;49.078;8.578;2023-06-14T01:25:19;4.47;;;4.07;;
12088;SDS011;6107;49.078;8.578;2023-06-14T01:27:48;6.50;;;4.23;;
12088;SDS011;6107;49.078;8.578;2023-06-14T01:30:16;6.53;;;4.53;;
12088;SDS011;6107;49.078;8.578;2023-06-14T01:32:42;5.27;;;4.63;;
12088;SDS011;6107;49.078;8.578;2023-06-14T01:35:10;7.40;;;4.50;;
12088;SDS011;6107;49.078;8.578;2023-06-14T01:37:36;5.37;;;4.30;;
12088;SDS011;6107;49.078;8.578;2023-06-14T01:40:03;4.77;;;4.10;;
12088;SDS011;6107;49.078;8.578;2023-06-14T01:42:31;4.73;;;4.20;;
12088;SDS011;6107;49.078;8.578;2023-06-14T01:45:00;7.10;;;4.50;;
12088;SDS011;6107;49.078;8.578;2023-06-14T01:47:27;7.20;;;4.37;;
12088;SDS011;6107;49.078;8.578;2023-06-14T01:49:53;6.93;;;4.60;;
12088;SDS011;6107;49.078;8.578;2023-06-14T01:52:19;7.73;;;4.50;;
12088;SDS011;6107;49.078;8.578;2023-06-14T01:54:44;7.17;;;4.43;;
12088;SDS011;6107;49.078;8.578;2023-06-14T01:57:11;6.20;;;4.43;;
12088;SDS011;6107;49.078;8.578;2023-06-14T01:59:36;8.23;;;4.43;;
12088;SDS011;6107;49.078;8.578;2023-06-14T02:02:02;6.43;;;4.70;;
12088;SDS011;6107;49.078;8.578;2023-06-14T02:04:28;7.27;;;4.67;;
12088;SDS011;6107;49.078;8.578;2023-06-14T02:06:54;7.03;;;4.37;;
12088;SDS011;6107;49.078;8.578;2023-06-14T02:09:19;7.47;;;4.73;;
12088;SDS011;6107;49.078;8.578;2023-06-14T02:11:45;6.20;;;4.60;;
12088;SDS011;6107;49.078;8.578;2023-06-14T02:14:10;5.97;;;4.53;;
12088;SDS011;6107;49.078;8.578;2023-06-14T02:16:36;5.10;;;4.37;;
12088;SDS011;6107;49.078;8.578;2023-06-14T02:19:03;7.17;;;4.70;;
12088;SDS011;6107;49.078;8.578;2023-06-14T02:21:29;6.17;;;4.63;;
12088;SDS011;6107;49.078;8.578;2023-06-14T02:23:55;6.30;;;4.60;;
12088;SDS011;6107;49.078;8.578;2023-06-14T02:26:21;7.17;;;4.43;;
12088;SDS011;6107;49.078;8.578;2023-06-14T02:28:47;5.47;;;4.33;;
12088;SDS011;6107;49.078;8.578;2023-06-14T02:31:13;9.97;;;4.47;;
12088;SDS011;6107;49.078;8.578;2023-06-14T02:33:39;6.40;;;4.63;;
12088;SDS011;6107;49.078;8.578;2023-06-14T02:36:04;7.60;;;4.60;;
12088;SDS011;6107;49.078;8.578;2023-06-14T02:38:30;5.50;;;4.27;;
12088;SDS011;6107;49.078;8.578;2023-06-14T02:40:56;7.20;;;4.93;;
12088;SDS011;6107;49.078;8.578;2023-06-14T02:43:24;5.07;;;4.10;;
12088;SDS011;6107;49.078;8.578;2023-06-14T02:45:49;5.67;;;4.63;;
12088;SDS011;6107;49.078;8.578;2023-06-14T02:48:15;5.63;;;4.57;;
12088;SDS011;6107;49.078;8.578;2023-06-14T02:50:41;6.97;;;5.27;;
12088;SDS011;6107;49.078;8.578;2023-06-14T02:53:06;7.33;;;4.33;;
12088;SDS011;6107;49.078;8.578;2023-06-14T02:55:32;7.43;;;4.87;;
12088;SDS011;6107;49.078;8.578;2023-06-14T02:57:58;7.00;;;4.37;;
12088;SDS011;6107;49.078;8.578;2023-06-14T03:00:24;6.93;;;4.70;;
12088;SDS011;6107;49.078;8.578;2023-06-14T03:02:49;6.80;;;4.40;;
12088;SDS011;6107;49.078;8.578;2023-06-14T03:05:16;6.53;;;4.30;;
12088;SDS011;6107;49.078;8.578;2023-06-14T03:07:46;5.33;;;4.43;;
12088;SDS011;6107;49.078;8.578;2023-06-14T03:10:12;5.77;;;4.27;;
12088;SDS011;6107;49.078;8.578;2023-06-14T03:12:38;6.90;;;4.57;;
12088;SDS011;6107;49.078;8.578;2023-06-14T03:15:04;7.27;;;4.70;;
12088;SDS011;6107;49.078;8.578;2023-06-14T03:17:29;7.87;;;4.60;;
12088;SDS011;6107;49.078;8.578;2023-06-14T03:20:01;6.67;;;4.60;;
12088;SDS011;6107;49.078;8.578;2023-06-14T03:22:28;6.60;;;4.50;;
12088;SDS011;6107;49.078;8.578;2023-06-14T03:24:53;8.13;;;4.43;;
12088;SDS011;6107;49.078;8.578;2023-06-14T03:27:20;8.07;;;4.50;;
12088;SDS011;6107;49.078;8.578;2023-06-14T03:29:45;5.20;;;4.30;;
12088;SDS011;6107;49.078;8.578;2023-06-14T03:32:11;8.43;;;5.03;;
12088;SDS011;6107;49.078;8.578;2023-06-14T03:34:36;6.40;;;4.60;;
12088;SDS011;6107;49.078;8.578;2023-06-14T03:37:04;6.83;;;4.90;;
12088;SDS011;6107;49.078;8.578;2023-06-14T03:39:29;5.97;;;5.07;;
12088;SDS011;6107;49.078;8.578;2023-06-14T03:41:55;7.60;;;4.87;;
12088;SDS011;6107;49.078;8.578;2023-06-14T03:44:21;7.33;;;4.77;;
12088;SDS011;6107;49.078;8.578;2023-06-14T03:46:46;6.00;;;4.80;;
12088;SDS011;6107;49.078;8.578;2023-06-14T03:49:12;7.00;;;4.90;;
12088;SDS011;6107;49.078;8.578;2023-06-14T03:51:37;4.83;;;4.30;;
12088;SDS011;6107;49.078;8.578;2023-06-14T03:54:04;6.83;;;5.00;;
12088;SDS011;6107;49.078;8.578;2023-06-14T03:56:30;7.03;;;5.00;;
12088;SDS011;6107;49.078;8.578;2023-06-14T03:58:56;7.77;;;4.93;;
12088;SDS011;6107;49.078;8.578;2023-06-14T04:01:21;7.27;;;4.70;;
12088;SDS011;6107;49.078;8.578;2023-06-14T04:03:52;6.03;;;4.87;;
12088;SDS011;6107;49.078;8.578;2023-06-14T04:06:17;6.93;;;4.90;;
12088;SDS011;6107;49.078;8.578;2023-06-14T04:08:44;6.57;;;4.60;;
12088;SDS011;6107;49.078;8.578;2023-06-14T04:11:10;6.90;;;5.20;;
12088;SDS011;6107;49.078;8.578;2023-06-14T04:13:36;10.43;;;5.17;;
12088;SDS011;6107;49.078;8.578;2023-06-14T04:16:02;8.40;;;5.07;;
12088;SDS011;6107;49.078;8.578;2023-06-14T04:18:28;5.13;;;4.47;;
12088;SDS011;6107;49.078;8.578;2023-06-14T04:20:54;5.37;;;4.83;;
12088;SDS011;6107;49.078;8.578;2023-06-14T04:23:21;7.27;;;4.93;;
12088;SDS011;6107;49.078;8.578;2023-06-14T04:25:47;5.73;;;5.13;;
12088;SDS011;6107;49.078;8.578;2023-06-14T04:28:14;7.57;;;5.20;;
12088;SDS011;6107;49.078;8.578;2023-06-14T04:30:40;7.53;;;5.30;;
12088;SDS011;6107;49.078;8.578;2023-06-14T04:33:06;6.80;;;5.70;;
12088;SDS011;6107;49.078;8.578;2023-06-14T04:35:32;9.87;;;5.13;;
12088;SDS011;6107;49.078;8.578;2023-06-14T04:38:00;7.87;;;5.10;;
12088;SDS011;6107;49.078;8.578;2023-06-14T04:40:26;7.03;;;5.10;;
12088;SDS011;6107;49.078;8.578;2023-06-14T04:42:52;7.77;;;5.57;;
12088;SDS011;6107;49.078;8.578;2023-06-14T04:45:17;7.43;;;5.47;;
12088;SDS011;6107;49.078;8.578;2023-06-14T04:47:43;8.03;;;5.20;;
12088;SDS011;6107;49.078;8.578;2023-06-14T04:50:09;5.87;;;4.87;;
12088;SDS011;6107;49.078;8.578;2023-06-14T04:52:38;6.97;;;5.33;;
12088;SDS011;6107;49.078;8.578;2023-06-14T04:55:03;9.00;;;6.17;;
12088;SDS011;6107;49.078;8.578;2023-06-14T04:57:30;6.37;;;5.23;;
12088;SDS011;6107;49.078;8.578;2023-06-14T04:59:56;10.63;;;5.80;;
12088;SDS011;6107;49.078;8.578;2023-06-14T05:02:22;6.43;;;5.40;;
12088;SDS011;6107;49.078;8.578;2023-06-14T05:04:49;7.27;;;5.47;;
12088;SDS011;6107;49.078;8.578;2023-06-14T05:07:15;6.67;;;5.57;;
12088;SDS011;6107;49.078;8.578;2023-06-14T05:09:40;7.03;;;5.47;;
12088;SDS011;6107;49.078;8.578;2023-06-14T05:12:06;6.37;;;5.13;;
12088;SDS011;6107;49.078;8.578;2023-06-14T05:14:33;7.60;;;5.13;;
12088;SDS011;6107;49.078;8.578;2023-06-14T05:16:59;5.80;;;5.20;;
12088;SDS011;6107;49.078;8.578;2023-06-14T05:19:24;7.87;;;5.13;;
12088;SDS011;6107;49.078;8.578;2023-06-14T05:21:50;6.60;;;5.13;;
12088;SDS011;6107;49.078;8.578;2023-06-14T05:24:16;7.33;;;5.83;;
12088;SDS011;6107;49.078;8.578;2023-06-14T05:26:44;9.00;;;5.67;;
12088;SDS011;6107;49.078;8.578;2023-06-14T05:29:10;8.80;;;5.40;;
12088;SDS011;6107;49.078;8.578;2023-06-14T05:31:36;6.80;;;5.43;;
12088;SDS011;6107;49.078;8.578;2023-06-14T05:34:02;6.80;;;5.20;;
12088;SDS011;6107;49.078;8.578;2023-06-14T05:36:27;7.57;;;5.30;;
12088;SDS011;6107;49.078;8.578;2023-06-14T05:38:53;6.83;;;5.20;;
12088;SDS011;6107;49.078;8.578;2023-06-14T05:41:23;5.80;;;5.20;;
12088;SDS011;6107;49.078;8.578;2023-06-14T05:43:52;7.60;;;5.23;;
12088;SDS011;6107;49.078;8.578;2023-06-14T05:46:19;6.40;;;5.20;;
12088;SDS011;6107;49.078;8.578;2023-06-14T05:48:49;8.07;;;5.00;;
12088;SDS011;6107;49.078;8.578;2023-06-14T05:51:15;5.93;;;5.32;;
12088;SDS011;6107;49.078;8.578;2023-06-14T05:53:43;7.47;;;5.20;;
12088;SDS011;6107;49.078;8.578;2023-06-14T05:56:12;7.73;;;5.23;;
12088;SDS011;6107;49.078;8.578;2023-06-14T05:58:43;9.20;;;5.50;;
12088;SDS011;6107;49.078;8.578;2023-06-14T06:01:08;8.20;;;5.20;;
12088;SDS011;6107;49.078;8.578;2023-06-14T06:03:34;5.57;;;4.70;;
12088;SDS011;6107;49.078;8.578;2023-06-14T06:06:00;6.57;;;5.07;;
12088;SDS011;6107;49.078;8.578;2023-06-14T06:08:26;7.90;;;5.45;;
12088;SDS011;6107;49.078;8.578;2023-06-14T06:10:52;8.13;;;6.00;;
12088;SDS011;6107;49.078;8.578;2023-06-14T06:13:17;8.30;;;5.43;;
12088;SDS011;6107;49.078;8.578;2023-06-14T06:15:43;7.85;;;5.32;;
12088;SDS011;6107;49.078;8.578;2023-06-14T06:18:09;9.52;;;5.57;;
12088;SDS011;6107;49.078;8.578;2023-06-14T06:20:34;6.53;;;5.30;;
12088;SDS011;6107;49.078;8.578;2023-06-14T06:23:01;8.75;;;5.55;;
12088;SDS011;6107;49.078;8.578;2023-06-14T06:25:27;8.85;;;5.70;;
12088;SDS011;6107;49.078;8.578;2023-06-14T06:27:55;8.80;;;5.65;;
12088;SDS011;6107;49.078;8.578;2023-06-14T06:30:21;6.40;;;5.43;;
12088;SDS011;6107;49.078;8.578;2023-06-14T06:32:47;9.13;;;5.75;;
12088;SDS011;6107;49.078;8.578;2023-06-14T06:35:12;7.72;;;5.80;;
12088;SDS011;6107;49.078;8.578;2023-06-14T06:37:38;8.70;;;5.68;;
12088;SDS011;6107;49.078;8.578;2023-06-14T06:40:04;8.88;;;4.97;;
12088;SDS011;6107;49.078;8.578;2023-06-14T06:42:31;7.05;;;5.30;;
12088;SDS011;6107;49.078;8.578;2023-06-14T06:44:57;6.68;;;5.05;;
12088;SDS011;6107;49.078;8.578;2023-06-14T06:47:22;7.28;;;5.50;;
12088;SDS011;6107;49.078;8.578;2023-06-14T06:49:48;12.00;;;5.25;;
12088;SDS011;6107;49.078;8.578;2023-06-14T06:52:13;6.60;;;5.03;;
12088;SDS011;6107;49.078;8.578;2023-06-14T06:54:39;8.02;;;5.95;;
12088;SDS011;6107;49.078;8.578;2023-06-14T06:57:05;6.90;;;5.25;;
12088;SDS011;6107;49.078;8.578;2023-06-14T06:59:31;6.53;;;5.38;;
12088;SDS011;6107;49.078;8.578;2023-06-14T07:01:57;8.90;;;5.32;;
12088;SDS011;6107;49.078;8.578;2023-06-14T07:04:22;6.85;;;5.00;;
12088;SDS011;6107;49.078;8.578;2023-06-14T07:06:48;9.20;;;5.35;;
12088;SDS011;6107;49.078;8.578;2023-06-14T07:09:13;8.65;;;5.10;;
12088;SDS011;6107;49.078;8.578;2023-06-14T07:11:40;8.90;;;4.97;;
12088;SDS011;6107;49.078;8.578;2023-06-14T07:14:07;6.00;;;5.00;;
12088;SDS011;6107;49.078;8.578;2023-06-14T07:16:32;7.47;;;4.93;;
12088;SDS011;6107;49.078;8.578;2023-06-14T07:18:58;7.07;;;5.10;;
12088;SDS011;6107;49.078;8.578;2023-06-14T07:21:25;6.82;;;4.82;;
12088;SDS011;6107;49.078;8.578;2023-06-14T07:23:53;8.07;;;5.20;;
12088;SDS011;6107;49.078;8.578;2023-06-14T07:26:19;8.45;;;5.35;;
12088;SDS011;6107;49.078;8.578;2023-06-14T07:28:45;8.52;;;5.25;;
12088;SDS011;6107;49.078;8.578;2023-06-14T07:31:11;7.03;;;5.13;;
12088;SDS011;6107;49.078;8.578;2023-06-14T07:33:37;7.53;;;5.30;;
12088;SDS011;6107;49.078;8.578;2023-06-14T07:36:03;7.50;;;5.07;;
12088;SDS011;6107;49.078;8.578;2023-06-14T07:38:29;6.30;;;5.10;;
12088;SDS011;6107;49.078;8.578;2023-06-14T07:40:54;5.85;;;4.80;;
12088;SDS011;6107;49.078;8.578;2023-06-14T07:43:20;6.70;;;4.95;;
12088;SDS011;6107;49.078;8.578;2023-06-14T07:45:45;7.00;;;4.68;;
12088;SDS011;6107;49.078;8.578;2023-06-14T07:48:11;7.78;;;5.22;;
12088;SDS011;6107;49.078;8.578;2023-06-14T07:50:36;7.35;;;4.68;;
12088;SDS011;6107;49.078;8.578;2023-06-14T07:53:02;9.32;;;5.10;;
12088;SDS011;6107;49.078;8.578;2023-06-14T07:55:27;6.75;;;4.72;;
12088;SDS011;6107;49.078;8.578;2023-06-14T07:57:53;7.28;;;4.75;;
12088;SDS011;6107;49.078;8.578;2023-06-14T08:00:19;9.40;;;4.90;;
12088;SDS011;6107;49.078;8.578;2023-06-14T08:02:45;6.65;;;5.10;;
12088;SDS011;6107;49.078;8.578;2023-06-14T08:05:11;7.40;;;5.20;;
12088;SDS011;6107;49.078;8.578;2023-06-14T08:07:38;7.43;;;4.38;;
12088;SDS011;6107;49.078;8.578;2023-06-14T08:10:05;7.70;;;4.80;;
12088;SDS011;6107;49.078;8.578;2023-06-14T08:12:31;5.93;;;5.20;;
12088;SDS011;6107;49.078;8.578;2023-06-14T08:14:57;6.45;;;5.15;;
12088;SDS011;6107;49.078;8.578;2023-06-14T08:17:23;7.68;;;5.45;;
12088;SDS011;6107;49.078;8.578;2023-06-14T08:19:48;9.95;;;4.95;;
12088;SDS011;6107;49.078;8.578;2023-06-14T08:22:14;7.55;;;5.40;;
12088;SDS011;6107;49.078;8.578;2023-06-14T08:24:40;6.13;;;5.25;;
12088;SDS011;6107;49.078;8.578;2023-06-14T08:27:06;9.05;;;5.57;;
12088;SDS011;6107;49.078;8.578;2023-06-14T08:29:31;6.20;;;5.13;;
12088;SDS011;6107;49.078;8.578;2023-06-14T08:31:57;6.32;;;5.18;;
12088;SDS011;6107;49.078;8.578;2023-06-14T08:34:22;7.05;;;5.18;;
12088;SDS011;6107;49.078;8.578;2023-06-14T08:36:49;6.65;;;5.28;;
12088;SDS011;6107;49.078;8.578;2023-06-14T08:39:15;5.43;;;4.90;;
12088;SDS011;6107;49.078;8.578;2023-06-14T08:41:41;5.53;;;4.95;;
12088;SDS011;6107;49.078;8.578;2023-06-14T08:44:10;6.88;;;5.38;;
12088;SDS011;6107;49.078;8.578;2023-06-14T08:46:36;7.20;;;4.70;;
12088;SDS011;6107;49.078;8.578;2023-06-14T08:49:02;8.77;;;5.18;;
12088;SDS011;6107;49.078;8.578;2023-06-14T08:51:30;10.40;;;5.03;;
12088;SDS011;6107;49.078;8.578;2023-06-14T08:54:01;6.63;;;5.18;;
12088;SDS011;6107;49.078;8.578;2023-06-14T08:56:29;7.75;;;5.10;;
12088;SDS011;6107;49.078;8.578;2023-06-14T08:58:59;6.40;;;5.22;;
12088;SDS011;6107;49.078;8.578;2023-06-14T09:01:34;6.65;;;5.20;;
12088;SDS011;6107;49.078;8.578;2023-06-14T09:04:01;6.78;;;4.43;;
12088;SDS011;6107;49.078;8.578;2023-06-14T09:06:27;5.60;;;5.05;;
12088;SDS011;6107;49.078;8.578;2023-06-14T09:08:54;7.63;;;5.18;;
12088;SDS011;6107;49.078;8.578;2023-06-14T09:11:22;9.80;;;5.10;;
12088;SDS011;6107;49.078;8.578;2023-06-14T09:13:48;5.55;;;4.72;;
12088;SDS011;6107;49.078;8.578;2023-06-14T09:16:14;6.10;;;4.90;;
12088;SDS011;6107;49.078;8.578;2023-06-14T09:18:45;6.32;;;4.80;;
12088;SDS011;6107;49.078;8.578;2023-06-14T09:21:15;7.28;;;4.93;;
12088;SDS011;6107;49.078;8.578;2023-06-14T09:23:45;9.32;;;4.63;;
12088;SDS011;6107;49.078;8.578;2023-06-14T09:26:16;8.50;;;5.35;;
12088;SDS011;6107;49.078;8.578;2023-06-14T09:28:46;8.25;;;4.85;;
12088;SDS011;6107;49.078;8.578;2023-06-14T09:31:14;7.47;;;4.80;;
12088;SDS011;6107;49.078;8.578;2023-06-14T09:33:42;9.32;;;4.97;;
12088;SDS011;6107;49.078;8.578;2023-06-14T09:36:15;5.53;;;5.03;;
12088;SDS011;6107;49.078;8.578;2023-06-14T09:38:56;7.88;;;4.75;;
12088;SDS011;6107;49.078;8.578;2023-06-14T09:41:32;6.78;;;5.20;;
12088;SDS011;6107;49.078;8.578;2023-06-14T09:43:59;7.53;;;4.40;;
12088;SDS011;6107;49.078;8.578;2023-06-14T09:46:26;8.10;;;4.57;;
12088;SDS011;6107;49.078;8.578;2023-06-14T09:48:52;7.35;;;4.82;;
12088;SDS011;6107;49.078;8.578;2023-06-14T09:51:17;6.40;;;4.85;;
12088;SDS011;6107;49.078;8.578;2023-06-14T09:53:45;6.47;;;4.50;;
12088;SDS011;6107;49.078;8.578;2023-06-14T09:56:14;5.60;;;4.40;;
12088;SDS011;6107;49.078;8.578;2023-06-14T09:58:47;5.63;;;4.72;;
12088;SDS011;6107;49.078;8.578;2023-06-14T10:01:15;6.18;;;4.85;;
12088;SDS011;6107;49.078;8.578;2023-06-14T10:03:42;8.55;;;4.75;;
12088;SDS011;6107;49.078;8.578;2023-06-14T10:06:09;7.57;;;4.38;;
12088;SDS011;6107;49.078;8.578;2023-06-14T10:08:34;6.53;;;4.63;;
12088;SDS011;6107;49.078;8.578;2023-06-14T10:11:02;6.57;;;4.28;;
12088;SDS011;6107;49.078;8.578;2023-06-14T10:13:28;4.55;;;4.07;;
12088;SDS011;6107;49.078;8.578;2023-06-14T10:16:00;7.25;;;4.30;;
12088;SDS011;6107;49.078;8.578;2023-06-14T10:18:42;6.60;;;4.40;;
12088;SDS011;6107;49.078;8.578;2023-06-14T10:21:23;6.93;;;4.45;;
12088;SDS011;6107;49.078;8.578;2023-06-14T10:24:13;8.57;;;4.20;;
12088;SDS011;6107;49.078;8.578;2023-06-14T10:26:53;5.88;;;3.83;;
12088;SDS011;6107;49.078;8.578;2023-06-14T10:29:19;5.82;;;4.47;;
12088;SDS011;6107;49.078;8.578;2023-06-14T10:34:12;5.78;;;4.38;;
12088;SDS011;6107;49.078;8.578;2023-06-14T10:37:03;6.00;;;4.43;;
12088;SDS011;6107;49.078;8.578;2023-06-14T10:39:30;5.72;;;4.50;;
12088;SDS011;6107;49.078;8.578;2023-06-14T10:41:56;8.25;;;5.15;;
12088;SDS011;6107;49.078;8.578;2023-06-14T10:49:17;9.43;;;5.30;;
12088;SDS011;6107;49.078;8.578;2023-06-14T10:51:44;7.00;;;5.18;;
12088;SDS011;6107;49.078;8.578;2023-06-14T10:54:16;6.85;;;4.50;;
12088;SDS011;6107;49.078;8.578;2023-06-14T10:56:46;9.40;;;4.88;;
12088;SDS011;6107;49.078;8.578;2023-06-14T10:59:12;7.15;;;4.70;;
12088;SDS011;6107;49.078;8.578;2023-06-14T11:01:41;6.13;;;4.53;;
12088;SDS011;6107;49.078;8.578;2023-06-14T11:04:12;7.28;;;4.93;;
12088;SDS011;6107;49.078;8.578;2023-06-14T11:06:59;6.80;;;4.60;;
12088;SDS011;6107;49.078;8.578;2023-06-14T11:12:31;6.72;;;5.00;;
12088;SDS011;6107;49.078;8.578;2023-06-14T11:14:58;7.25;;;5.03;;
12088;SDS011;6107;49.078;8.578;2023-06-14T11:17:24;5.55;;;4.40;;
12088;SDS011;6107;49.078;8.578;2023-06-14T11:19:50;5.45;;;4.63;;
12088;SDS011;6107;49.078;8.578;2023-06-14T11:22:39;6.03;;;4.18;;
12088;SDS011;6107;49.078;8.578;2023-06-14T11:25:08;6.88;;;4.80;;
12088;SDS011;6107;49.078;8.578;2023-06-14T11:27:34;9.35;;;4.82;;
12088;SDS011;6107;49.078;8.578;2023-06-14T11:30:00;6.25;;;4.20;;
12088;SDS011;6107;49.078;8.578;2023-06-14T11:32:26;11.45;;;4.85;;
12088;SDS011;6107;49.078;8.578;2023-06-14T11:34:51;8.15;;;5.35;;
12088;SDS011;6107;49.078;8.578;2023-06-14T11:37:17;6.07;;;4.60;;
12088;SDS011;6107;49.078;8.578;2023-06-14T11:39:43;4.80;;;4.30;;
12088;SDS011;6107;49.078;8.578;2023-06-14T11:42:13;7.00;;;5.07;;
12088;SDS011;6107;49.078;8.578;2023-06-14T11:44:42;6.28;;;4.97;;
12088;SDS011;6107;49.078;8.578;2023-06-14T11:47:07;9.07;;;5.05;;
12088;SDS011;6107;49.078;8.578;2023-06-14T11:49:36;5.07;;;4.60;;
12088;SDS011;6107;49.078;8.578;2023-06-14T11:52:01;5.28;;;4.53;;
12088;SDS011;6107;49.078;8.578;2023-06-14T11:54:27;6.53;;;4.75;;
12088;SDS011;6107;49.078;8.578;2023-06-14T11:56:53;6.80;;;4.70;;
12088;SDS011;6107;49.078;8.578;2023-06-14T11:59:20;6.45;;;4.30;;
12088;SDS011;6107;49.078;8.578;2023-06-14T12:01:47;6.25;;;4.72;;
12088;SDS011;6107;49.078;8.578;2023-06-14T12:04:12;7.10;;;4.68;;
12088;SDS011;6107;49.078;8.578;2023-06-14T12:06:38;7.38;;;4.15;;
12088;SDS011;6107;49.078;8.578;2023-06-14T12:09:04;6.82;;;4.05;;
12088;SDS011;6107;49.078;8.578;2023-06-14T12:11:35;5.72;;;4.50;;
12088;SDS011;6107;49.078;8.578;2023-06-14T12:14:02;4.95;;;4.32;;
12088;SDS011;6107;49.078;8.578;2023-06-14T12:16:30;4.65;;;4.15;;
12088;SDS011;6107;49.078;8.578;2023-06-14T12:19:00;6.82;;;4.30;;
12088;SDS011;6107;49.078;8.578;2023-06-14T12:21:35;4.75;;;4.10;;
12088;SDS011;6107;49.078;8.578;2023-06-14T12:24:03;7.10;;;4.35;;
12088;SDS011;6107;49.078;8.578;2023-06-14T12:26:31;5.05;;;4.18;;
12088;SDS011;6107;49.078;8.578;2023-06-14T12:28:57;5.18;;;4.28;;
12088;SDS011;6107;49.078;8.578;2023-06-14T12:31:23;4.95;;;4.10;;
12088;SDS011;6107;49.078;8.578;2023-06-14T12:33:49;4.88;;;4.20;;
12088;SDS011;6107;49.078;8.578;2023-06-14T12:36:15;5.78;;;4.22;;
12088;SDS011;6107;49.078;8.578;2023-06-14T12:38:41;4.35;;;3.95;;
12088;SDS011;6107;49.078;8.578;2023-06-14T12:41:07;4.95;;;4.25;;
12088;SDS011;6107;49.078;8.578;2023-06-14T12:43:33;5.55;;;4.20;;
12088;SDS011;6107;49.078;8.578;2023-06-14T12:45:59;6.38;;;4.30;;
12088;SDS011;6107;49.078;8.578;2023-06-14T12:48:25;5.78;;;3.95;;
12088;SDS011;6107;49.078;8.578;2023-06-14T12:50:56;4.78;;;4.18;;
12088;SDS011;6107;49.078;8.578;2023-06-14T12:53:21;5.90;;;4.30;;
12088;SDS011;6107;49.078;8.578;2023-06-14T12:55:48;6.13;;;4.32;;
12088;SDS011;6107;49.078;8.578;2023-06-14T12:58:13;5.88;;;3.90;;
12088;SDS011;6107;49.078;8.578;2023-06-14T13:00:39;6.53;;;4.25;;
12088;SDS011;6107;49.078;8.578;2023-06-14T13:03:05;5.97;;;4.30;;
12088;SDS011;6107;49.078;8.578;2023-06-14T13:05:30;5.32;;;4.30;;
12088;SDS011;6107;49.078;8.578;2023-06-14T13:07:58;5.10;;;4.30;;
12088;SDS011;6107;49.078;8.578;2023-06-14T13:10:24;8.70;;;4.35;;
12088;SDS011;6107;49.078;8.578;2023-06-14T13:12:50;5.72;;;4.10;;
12088;SDS011;6107;49.078;8.578;2023-06-14T13:15:16;8.85;;;4.18;;
12088;SDS011;6107;49.078;8.578;2023-06-14T13:17:42;5.65;;;4.32;;
12088;SDS011;6107;49.078;8.578;2023-06-14T13:20:09;7.88;;;4.13;;
12088;SDS011;6107;49.078;8.578;2023-06-14T13:22:34;6.85;;;4.00;;
12088;SDS011;6107;49.078;8.578;2023-06-14T13:25:01;8.27;;;4.38;;
12088;SDS011;6107;49.078;8.578;2023-06-14T13:27:27;5.38;;;3.80;;
12088;SDS011;6107;49.078;8.578;2023-06-14T13:29:53;5.97;;;3.70;;
12088;SDS011;6107;49.078;8.578;2023-06-14T13:32:20;4.93;;;3.83;;
12088;SDS011;6107;49.078;8.578;2023-06-14T13:34:46;5.18;;;4.13;;
12088;SDS011;6107;49.078;8.578;2023-06-14T13:37:12;5.22;;;3.83;;
12088;SDS011;6107;49.078;8.578;2023-06-14T13:39:37;5.40;;;3.95;;
12088;SDS011;6107;49.078;8.578;2023-06-14T13:42:03;5.55;;;3.90;;
12088;SDS011;6107;49.078;8.578;2023-06-14T13:44:29;4.28;;;3.88;;
12088;SDS011;6107;49.078;8.578;2023-06-14T13:46:55;5.20;;;4.00;;
12088;SDS011;6107;49.078;8.578;2023-06-14T13:49:21;4.97;;;3.80;;
12088;SDS011;6107;49.078;8.578;2023-06-14T13:51:47;4.13;;;3.63;;
12088;SDS011;6107;49.078;8.578;2023-06-14T13:54:13;6.15;;;4.18;;
12088;SDS011;6107;49.078;8.578;2023-06-14T13:56:40;8.52;;;4.10;;
12088;SDS011;6107;49.078;8.578;2023-06-14T13:59:05;4.40;;;3.97;;
12088;SDS011;6107;49.078;8.578;2023-06-14T14:01:31;3.80;;;3.35;;
12088;SDS011;6107;49.078;8.578;2023-06-14T14:03:56;4.53;;;3.83;;
12088;SDS011;6107;49.078;8.578;2023-06-14T14:06:23;6.15;;;3.55;;
12088;SDS011;6107;49.078;8.578;2023-06-14T14:08:49;5.00;;;3.97;;
12088;SDS011;6107;49.078;8.578;2023-06-14T14:11:14;4.38;;;3.50;;
12088;SDS011;6107;49.078;8.578;2023-06-14T14:13:41;5.47;;;3.92;;
12088;SDS011;6107;49.078;8.578;2023-06-14T14:16:07;4.30;;;3.90;;
12088;SDS011;6107;49.078;8.578;2023-06-14T14:18:33;4.43;;;3.78;;
12088;SDS011;6107;49.078;8.578;2023-06-14T14:20:58;5.10;;;3.95;;
12088;SDS011;6107;49.078;8.578;2023-06-14T14:23:25;5.82;;;3.92;;
12088;SDS011;6107;49.078;8.578;2023-06-14T14:25:51;6.07;;;3.90;;
12088;SDS011;6107;49.078;8.578;2023-06-14T14:28:16;5.85;;;4.10;;
12088;SDS011;6107;49.078;8.578;2023-06-14T14:30:44;5.88;;;3.92;;
12088;SDS011;6107;49.078;8.578;2023-06-14T14:33:10;3.97;;;3.55;;
12088;SDS011;6107;49.078;8.578;2023-06-14T14:35:40;5.57;;;3.70;;
12088;SDS011;6107;49.078;8.578;2023-06-14T14:38:12;4.10;;;3.67;;
12088;SDS011;6107;49.078;8.578;2023-06-14T14:40:39;5.53;;;4.07;;
12088;SDS011;6107;49.078;8.578;2023-06-14T14:43:05;5.18;;;4.00;;
12088;SDS011;6107;49.078;8.578;2023-06-14T14:45:31;8.10;;;4.30;;
12088;SDS011;6107;49.078;8.578;2023-06-14T14:47:56;6.20;;;4.18;;
12088;SDS011;6107;49.078;8.578;2023-06-14T14:50:22;5.68;;;4.30;;
12088;SDS011;6107;49.078;8.578;2023-06-14T14:52:48;5.18;;;3.60;;
12088;SDS011;6107;49.078;8.578;2023-06-14T14:55:13;4.35;;;3.95;;
12088;SDS011;6107;49.078;8.578;2023-06-14T14:57:39;4.20;;;3.80;;
12088;SDS011;6107;49.078;8.578;2023-06-14T15:00:05;5.03;;;4.00;;
12088;SDS011;6107;49.078;8.578;2023-06-14T15:02:31;4.30;;;3.90;;
12088;SDS011;6107;49.078;8.578;2023-06-14T15:04:57;5.03;;;3.70;;
12088;SDS011;6107;49.078;8.578;2023-06-14T15:07:25;4.50;;;3.92;;
12088;SDS011;6107;49.078;8.578;2023-06-14T15:09:55;4.40;;;4.00;;